sensor_id;sensor_type;location;lat;lon;timestamp;P1;durP1;ratioP1;P2;durP2;ratioP2
62852;SDS011;49205;44.868;38.140;2022-12-28T00:01:24;4.87;;;2.15;;
62852;SDS011;49205;44.868;38.140;2022-12-28T00:03:53;4.08;;;2.12;;
62852;SDS011;49205;44.868;38.140;2022-12-28T00:06:22;3.45;;;2.42;;
62852;SDS011;49205;44.868;38.140;2022-12-28T00:08:51;2.60;;;2.00;;
62852;SDS011;49205;44.868;38.140;2022-12-28T00:11:21;2.35;;;1.72;;
62852;SDS011;49205;44.868;38.140;2022-12-28T00:13:49;2.15;;;1.22;;
62852;SDS011;49205;44.868;38.140;2022-12-28T00:16:28;2.65;;;2.10;;
62852;SDS011;49205;44.868;38.140;2022-12-28T00:18:58;2.17;;;1.40;;
62852;SDS011;49205;44.868;38.140;2022-12-28T00:21:27;1.75;;;1.62;;
62852;SDS011;49205;44.868;38.140;2022-12-28T00:23:56;3.15;;;2.35;;
62852;SDS011;49205;44.868;38.140;2022-12-28T00:26:25;3.02;;;2.12;;
62852;SDS011;49205;44.868;38.140;2022-12-28T00:28:54;4.25;;;2.65;;
62852;SDS011;49205;44.868;38.140;2022-12-28T00:31:23;2.85;;;2.02;;
62852;SDS011;49205;44.868;38.140;2022-12-28T00:33:52;3.22;;;2.37;;
62852;SDS011;49205;44.868;38.140;2022-12-28T00:36:20;3.80;;;2.72;;
62852;SDS011;49205;44.868;38.140;2022-12-28T00:38:49;4.72;;;2.52;;
62852;SDS011;49205;44.868;38.140;2022-12-28T00:41:17;3.58;;;2.33;;
62852;SDS011;49205;44.868;38.140;2022-12-28T00:43:46;3.05;;;2.20;;
62852;SDS011;49205;44.868;38.140;2022-12-28T00:46:15;3.80;;;2.30;;
62852;SDS011;49205;44.868;38.140;2022-12-28T00:48:44;3.70;;;2.20;;
62852;SDS011;49205;44.868;38.140;2022-12-28T00:51:13;3.65;;;2.30;;
62852;SDS011;49205;44.868;38.140;2022-12-28T00:53:42;3.85;;;2.60;;
62852;SDS011;49205;44.868;38.140;2022-12-28T00:56:12;3.15;;;2.47;;
62852;SDS011;49205;44.868;38.140;2022-12-28T00:58:40;2.30;;;1.90;;
62852;SDS011;49205;44.868;38.140;2022-12-28T01:01:16;2.27;;;2.05;;
62852;SDS011;49205;44.868;38.140;2022-12-28T01:03:42;5.53;;;2.45;;
62852;SDS011;49205;44.868;38.140;2022-12-28T01:06:11;2.25;;;1.60;;
62852;SDS011;49205;44.868;38.140;2022-12-28T01:08:40;2.58;;;1.82;;
62852;SDS011;49205;44.868;38.140;2022-12-28T01:11:09;2.65;;;1.80;;
62852;SDS011;49205;44.868;38.140;2022-12-28T01:13:37;3.02;;;1.55;;
62852;SDS011;49205;44.868;38.140;2022-12-28T01:16:18;3.08;;;1.62;;
62852;SDS011;49205;44.868;38.140;2022-12-28T01:18:43;3.50;;;2.37;;
62852;SDS011;49205;44.868;38.140;2022-12-28T01:21:17;3.00;;;1.70;;
62852;SDS011;49205;44.868;38.140;2022-12-28T01:23:42;2.85;;;2.08;;
62852;SDS011;49205;44.868;38.140;2022-12-28T01:26:11;2.47;;;1.80;;
62852;SDS011;49205;44.868;38.140;2022-12-28T01:28:40;1.95;;;1.72;;
62852;SDS011;49205;44.868;38.140;2022-12-28T01:31:10;2.27;;;1.75;;
62852;SDS011;49205;44.868;38.140;2022-12-28T01:33:38;2.37;;;1.87;;
62852;SDS011;49205;44.868;38.140;2022-12-28T01:36:12;2.62;;;1.92;;
62852;SDS011;49205;44.868;38.140;2022-12-28T01:38:37;3.17;;;1.67;;
62852;SDS011;49205;44.868;38.140;2022-12-28T01:41:06;4.08;;;2.00;;
62852;SDS011;49205;44.868;38.140;2022-12-28T01:43:39;2.87;;;1.60;;
62852;SDS011;49205;44.868;38.140;2022-12-28T01:46:08;6.03;;;2.08;;
62852;SDS011;49205;44.868;38.140;2022-12-28T01:48:39;1.60;;;1.12;;
62852;SDS011;49205;44.868;38.140;2022-12-28T01:51:07;1.65;;;1.25;;
62852;SDS011;49205;44.868;38.140;2022-12-28T01:53:36;1.40;;;1.20;;
62852;SDS011;49205;44.868;38.140;2022-12-28T01:56:05;2.62;;;1.27;;
62852;SDS011;49205;44.868;38.140;2022-12-28T01:58:34;2.80;;;1.07;;
62852;SDS011;49205;44.868;38.140;2022-12-28T02:01:02;3.90;;;1.75;;
62852;SDS011;49205;44.868;38.140;2022-12-28T02:03:31;4.15;;;1.50;;
62852;SDS011;49205;44.868;38.140;2022-12-28T02:06:03;2.65;;;1.35;;
62852;SDS011;49205;44.868;38.140;2022-12-28T02:11:18;2.87;;;1.37;;
62852;SDS011;49205;44.868;38.140;2022-12-28T02:13:48;1.45;;;1.32;;
62852;SDS011;49205;44.868;38.140;2022-12-28T02:16:17;1.60;;;1.37;;
62852;SDS011;49205;44.868;38.140;2022-12-28T02:18:46;4.15;;;1.52;;
62852;SDS011;49205;44.868;38.140;2022-12-28T02:24:09;1.75;;;1.57;;
62852;SDS011;49205;44.868;38.140;2022-12-28T02:26:44;1.25;;;1.15;;
62852;SDS011;49205;44.868;38.140;2022-12-28T02:31:49;1.98;;;1.50;;
62852;SDS011;49205;44.868;38.140;2022-12-28T02:37:05;4.83;;;2.08;;
62852;SDS011;49205;44.868;38.140;2022-12-28T02:39:31;2.70;;;2.22;;
62852;SDS011;49205;44.868;38.140;2022-12-28T02:41:59;2.50;;;2.30;;
62852;SDS011;49205;44.868;38.140;2022-12-28T02:44:28;5.95;;;2.33;;
62852;SDS011;49205;44.868;38.140;2022-12-28T02:47:16;3.80;;;2.70;;
62852;SDS011;49205;44.868;38.140;2022-12-28T02:50:05;3.08;;;2.52;;
62852;SDS011;49205;44.868;38.140;2022-12-28T03:06:34;4.37;;;2.40;;
62852;SDS011;49205;44.868;38.140;2022-12-28T03:11:50;4.25;;;2.98;;
62852;SDS011;49205;44.868;38.140;2022-12-28T03:14:27;5.47;;;3.17;;
62852;SDS011;49205;44.868;38.140;2022-12-28T03:16:56;4.55;;;2.90;;
62852;SDS011;49205;44.868;38.140;2022-12-28T03:19:45;3.67;;;2.27;;
62852;SDS011;49205;44.868;38.140;2022-12-28T03:22:31;3.65;;;2.62;;
62852;SDS011;49205;44.868;38.140;2022-12-28T03:25:20;4.03;;;2.22;;
62852;SDS011;49205;44.868;38.140;2022-12-28T03:28:07;5.53;;;2.52;;
62852;SDS011;49205;44.868;38.140;2022-12-28T03:30:58;4.87;;;2.87;;
62852;SDS011;49205;44.868;38.140;2022-12-28T03:33:37;6.28;;;3.08;;
62852;SDS011;49205;44.868;38.140;2022-12-28T03:38:52;6.28;;;3.05;;
62852;SDS011;49205;44.868;38.140;2022-12-28T03:41:21;5.85;;;3.33;;
62852;SDS011;49205;44.868;38.140;2022-12-28T03:43:51;5.20;;;3.52;;
62852;SDS011;49205;44.868;38.140;2022-12-28T03:46:26;8.50;;;3.98;;
62852;SDS011;49205;44.868;38.140;2022-12-28T03:48:56;8.13;;;4.83;;
62852;SDS011;49205;44.868;38.140;2022-12-28T03:51:24;7.80;;;4.75;;
62852;SDS011;49205;44.868;38.140;2022-12-28T03:53:53;8.23;;;5.03;;
62852;SDS011;49205;44.868;38.140;2022-12-28T03:56:23;13.38;;;5.30;;
62852;SDS011;49205;44.868;38.140;2022-12-28T03:58:54;9.63;;;5.65;;
62852;SDS011;49205;44.868;38.140;2022-12-28T04:01:25;10.63;;;6.05;;
62852;SDS011;49205;44.868;38.140;2022-12-28T04:03:53;10.05;;;7.10;;
62852;SDS011;49205;44.868;38.140;2022-12-28T04:06:22;7.87;;;6.55;;
62852;SDS011;49205;44.868;38.140;2022-12-28T04:08:51;11.60;;;7.10;;
62852;SDS011;49205;44.868;38.140;2022-12-28T04:11:21;10.60;;;7.35;;
62852;SDS011;49205;44.868;38.140;2022-12-28T04:13:51;11.48;;;8.05;;
62852;SDS011;49205;44.868;38.140;2022-12-28T04:16:20;12.45;;;7.67;;
62852;SDS011;49205;44.868;38.140;2022-12-28T04:18:49;10.30;;;7.50;;
62852;SDS011;49205;44.868;38.140;2022-12-28T04:21:18;14.33;;;9.30;;
62852;SDS011;49205;44.868;38.140;2022-12-28T04:23:47;9.00;;;6.85;;
62852;SDS011;49205;44.868;38.140;2022-12-28T04:26:17;8.73;;;7.50;;
62852;SDS011;49205;44.868;38.140;2022-12-28T04:28:47;10.68;;;7.58;;
62852;SDS011;49205;44.868;38.140;2022-12-28T04:31:34;10.45;;;7.12;;
62852;SDS011;49205;44.868;38.140;2022-12-28T04:34:04;8.18;;;6.55;;
62852;SDS011;49205;44.868;38.140;2022-12-28T04:36:34;7.45;;;5.33;;
62852;SDS011;49205;44.868;38.140;2022-12-28T04:39:03;7.53;;;5.03;;
62852;SDS011;49205;44.868;38.140;2022-12-28T04:41:32;6.30;;;5.35;;
62852;SDS011;49205;44.868;38.140;2022-12-28T04:44:00;7.55;;;4.90;;
62852;SDS011;49205;44.868;38.140;2022-12-28T04:46:29;4.05;;;3.20;;
62852;SDS011;49205;44.868;38.140;2022-12-28T04:48:58;4.97;;;3.85;;
62852;SDS011;49205;44.868;38.140;2022-12-28T04:51:27;5.80;;;3.77;;
62852;SDS011;49205;44.868;38.140;2022-12-28T04:53:56;4.75;;;4.12;;
62852;SDS011;49205;44.868;38.140;2022-12-28T04:56:25;6.28;;;4.87;;
62852;SDS011;49205;44.868;38.140;2022-12-28T04:58:59;6.00;;;4.35;;
62852;SDS011;49205;44.868;38.140;2022-12-28T05:01:23;7.97;;;5.05;;
62852;SDS011;49205;44.868;38.140;2022-12-28T05:03:53;9.85;;;5.72;;
62852;SDS011;49205;44.868;38.140;2022-12-28T05:06:22;7.92;;;6.28;;
62852;SDS011;49205;44.868;38.140;2022-12-28T05:08:51;5.12;;;3.95;;
62852;SDS011;49205;44.868;38.140;2022-12-28T05:11:20;8.35;;;6.10;;
62852;SDS011;49205;44.868;38.140;2022-12-28T05:13:49;8.38;;;5.17;;
62852;SDS011;49205;44.868;38.140;2022-12-28T05:16:18;9.53;;;4.62;;
62852;SDS011;49205;44.868;38.140;2022-12-28T05:18:47;9.28;;;6.17;;
62852;SDS011;49205;44.868;38.140;2022-12-28T05:21:20;10.58;;;6.50;;
62852;SDS011;49205;44.868;38.140;2022-12-28T05:23:48;7.40;;;5.97;;
62852;SDS011;49205;44.868;38.140;2022-12-28T05:26:18;7.70;;;6.00;;
62852;SDS011;49205;44.868;38.140;2022-12-28T05:28:47;12.03;;;5.80;;
62852;SDS011;49205;44.868;38.140;2022-12-28T05:31:16;7.20;;;4.83;;
62852;SDS011;49205;44.868;38.140;2022-12-28T05:33:45;5.40;;;4.25;;
62852;SDS011;49205;44.868;38.140;2022-12-28T05:36:15;14.03;;;5.53;;
62852;SDS011;49205;44.868;38.140;2022-12-28T05:38:44;6.47;;;5.12;;
62852;SDS011;49205;44.868;38.140;2022-12-28T05:41:13;9.30;;;5.90;;
62852;SDS011;49205;44.868;38.140;2022-12-28T05:43:42;6.45;;;5.00;;
62852;SDS011;49205;44.868;38.140;2022-12-28T05:46:12;8.65;;;5.90;;
62852;SDS011;49205;44.868;38.140;2022-12-28T05:48:41;14.50;;;8.93;;
62852;SDS011;49205;44.868;38.140;2022-12-28T05:51:11;10.38;;;8.13;;
62852;SDS011;49205;44.868;38.140;2022-12-28T05:53:40;8.23;;;6.60;;
62852;SDS011;49205;44.868;38.140;2022-12-28T05:56:12;10.95;;;7.12;;
62852;SDS011;49205;44.868;38.140;2022-12-28T05:58:41;10.32;;;7.05;;
62852;SDS011;49205;44.868;38.140;2022-12-28T06:01:11;13.00;;;9.48;;
62852;SDS011;49205;44.868;38.140;2022-12-28T06:03:39;13.50;;;7.42;;
62852;SDS011;49205;44.868;38.140;2022-12-28T06:06:09;11.38;;;7.87;;
62852;SDS011;49205;44.868;38.140;2022-12-28T06:08:38;13.03;;;8.30;;
62852;SDS011;49205;44.868;38.140;2022-12-28T06:11:08;14.15;;;8.00;;
62852;SDS011;49205;44.868;38.140;2022-12-28T06:13:37;12.75;;;7.62;;
62852;SDS011;49205;44.868;38.140;2022-12-28T06:16:06;8.40;;;6.08;;
62852;SDS011;49205;44.868;38.140;2022-12-28T06:18:35;12.60;;;9.38;;
62852;SDS011;49205;44.868;38.140;2022-12-28T06:21:04;13.58;;;7.83;;
62852;SDS011;49205;44.868;38.140;2022-12-28T06:23:33;15.83;;;8.13;;
62852;SDS011;49205;44.868;38.140;2022-12-28T06:26:02;14.20;;;8.98;;
62852;SDS011;49205;44.868;38.140;2022-12-28T06:28:31;10.30;;;7.28;;
62852;SDS011;49205;44.868;38.140;2022-12-28T06:31:00;15.75;;;9.83;;
62852;SDS011;49205;44.868;38.140;2022-12-28T06:33:29;21.62;;;11.18;;
62852;SDS011;49205;44.868;38.140;2022-12-28T06:35:58;18.42;;;13.13;;
62852;SDS011;49205;44.868;38.140;2022-12-28T06:38:26;24.02;;;12.23;;
62852;SDS011;49205;44.868;38.140;2022-12-28T06:41:03;21.52;;;11.03;;
62852;SDS011;49205;44.868;38.140;2022-12-28T06:43:32;20.52;;;11.05;;
62852;SDS011;49205;44.868;38.140;2022-12-28T06:46:01;22.82;;;13.35;;
62852;SDS011;49205;44.868;38.140;2022-12-28T06:48:30;23.98;;;14.00;;
62852;SDS011;49205;44.868;38.140;2022-12-28T06:50:59;19.70;;;13.38;;
62852;SDS011;49205;44.868;38.140;2022-12-28T06:53:29;24.07;;;13.55;;
62852;SDS011;49205;44.868;38.140;2022-12-28T06:55:58;19.23;;;10.65;;
62852;SDS011;49205;44.868;38.140;2022-12-28T06:58:28;20.43;;;13.70;;
62852;SDS011;49205;44.868;38.140;2022-12-28T07:00:57;18.42;;;12.18;;
62852;SDS011;49205;44.868;38.140;2022-12-28T07:03:25;15.63;;;9.65;;
62852;SDS011;49205;44.868;38.140;2022-12-28T07:05:54;17.00;;;11.73;;
62852;SDS011;49205;44.868;38.140;2022-12-28T07:08:24;18.30;;;9.58;;
62852;SDS011;49205;44.868;38.140;2022-12-28T07:10:53;15.25;;;9.38;;
62852;SDS011;49205;44.868;38.140;2022-12-28T07:13:22;20.65;;;11.20;;
62852;SDS011;49205;44.868;38.140;2022-12-28T07:15:50;24.52;;;13.50;;
62852;SDS011;49205;44.868;38.140;2022-12-28T07:18:19;13.78;;;9.60;;
62852;SDS011;49205;44.868;38.140;2022-12-28T07:20:48;15.45;;;10.88;;
62852;SDS011;49205;44.868;38.140;2022-12-28T07:23:16;17.95;;;10.85;;
62852;SDS011;49205;44.868;38.140;2022-12-28T07:25:45;15.40;;;9.95;;
62852;SDS011;49205;44.868;38.140;2022-12-28T07:28:14;16.95;;;10.53;;
62852;SDS011;49205;44.868;38.140;2022-12-28T07:30:42;17.65;;;8.73;;
62852;SDS011;49205;44.868;38.140;2022-12-28T07:33:11;18.10;;;10.93;;
62852;SDS011;49205;44.868;38.140;2022-12-28T07:35:39;16.05;;;9.88;;
62852;SDS011;49205;44.868;38.140;2022-12-28T07:38:08;18.20;;;10.08;;
62852;SDS011;49205;44.868;38.140;2022-12-28T07:40:36;12.03;;;7.90;;
62852;SDS011;49205;44.868;38.140;2022-12-28T07:43:05;12.55;;;6.97;;
62852;SDS011;49205;44.868;38.140;2022-12-28T07:45:34;17.92;;;10.18;;
62852;SDS011;49205;44.868;38.140;2022-12-28T07:48:02;14.47;;;8.93;;
62852;SDS011;49205;44.868;38.140;2022-12-28T07:53:00;10.88;;;7.35;;
62852;SDS011;49205;44.868;38.140;2022-12-28T07:55:28;12.60;;;7.72;;
62852;SDS011;49205;44.868;38.140;2022-12-28T07:57:58;14.15;;;8.78;;
62852;SDS011;49205;44.868;38.140;2022-12-28T08:00:26;9.35;;;6.33;;
62852;SDS011;49205;44.868;38.140;2022-12-28T08:02:55;10.65;;;6.12;;
62852;SDS011;49205;44.868;38.140;2022-12-28T08:05:23;10.63;;;5.75;;
62852;SDS011;49205;44.868;38.140;2022-12-28T08:07:52;4.80;;;3.95;;
62852;SDS011;49205;44.868;38.140;2022-12-28T08:10:20;5.83;;;3.90;;
62852;SDS011;49205;44.868;38.140;2022-12-28T08:12:49;8.28;;;4.03;;
62852;SDS011;49205;44.868;38.140;2022-12-28T08:15:17;8.18;;;4.37;;
62852;SDS011;49205;44.868;38.140;2022-12-28T08:17:46;8.23;;;3.92;;
62852;SDS011;49205;44.868;38.140;2022-12-28T08:20:15;6.10;;;3.87;;
62852;SDS011;49205;44.868;38.140;2022-12-28T08:22:44;3.92;;;3.22;;
62852;SDS011;49205;44.868;38.140;2022-12-28T08:25:12;5.22;;;2.75;;
62852;SDS011;49205;44.868;38.140;2022-12-28T08:27:41;4.92;;;2.83;;
62852;SDS011;49205;44.868;38.140;2022-12-28T08:30:10;3.00;;;2.60;;
62852;SDS011;49205;44.868;38.140;2022-12-28T08:32:39;6.37;;;3.40;;
62852;SDS011;49205;44.868;38.140;2022-12-28T08:35:08;4.00;;;2.90;;
62852;SDS011;49205;44.868;38.140;2022-12-28T08:37:36;6.95;;;2.25;;
62852;SDS011;49205;44.868;38.140;2022-12-28T08:40:05;3.22;;;2.80;;
62852;SDS011;49205;44.868;38.140;2022-12-28T08:42:34;3.22;;;2.70;;
62852;SDS011;49205;44.868;38.140;2022-12-28T08:45:03;5.08;;;2.85;;
62852;SDS011;49205;44.868;38.140;2022-12-28T08:47:31;3.47;;;2.42;;
62852;SDS011;49205;44.868;38.140;2022-12-28T08:50:00;4.30;;;3.05;;
62852;SDS011;49205;44.868;38.140;2022-12-28T08:52:34;3.47;;;2.35;;
62852;SDS011;49205;44.868;38.140;2022-12-28T08:55:03;4.53;;;2.70;;
62852;SDS011;49205;44.868;38.140;2022-12-28T08:57:32;5.55;;;3.55;;
62852;SDS011;49205;44.868;38.140;2022-12-28T09:00:01;5.85;;;3.55;;
62852;SDS011;49205;44.868;38.140;2022-12-28T09:02:29;7.03;;;6.33;;
62852;SDS011;49205;44.868;38.140;2022-12-28T09:04:58;6.22;;;2.70;;
62852;SDS011;49205;44.868;38.140;2022-12-28T09:07:27;6.25;;;3.80;;
62852;SDS011;49205;44.868;38.140;2022-12-28T09:09:55;4.90;;;3.67;;
62852;SDS011;49205;44.868;38.140;2022-12-28T09:12:24;5.87;;;4.20;;
62852;SDS011;49205;44.868;38.140;2022-12-28T09:14:53;6.17;;;3.95;;
62852;SDS011;49205;44.868;38.140;2022-12-28T09:17:21;5.60;;;3.90;;
62852;SDS011;49205;44.868;38.140;2022-12-28T09:19:50;7.65;;;3.60;;
62852;SDS011;49205;44.868;38.140;2022-12-28T09:22:18;11.70;;;4.90;;
62852;SDS011;49205;44.868;38.140;2022-12-28T09:24:53;4.78;;;3.30;;
62852;SDS011;49205;44.868;38.140;2022-12-28T09:27:21;3.17;;;2.83;;
62852;SDS011;49205;44.868;38.140;2022-12-28T09:29:50;6.42;;;3.20;;
62852;SDS011;49205;44.868;38.140;2022-12-28T09:32:20;3.80;;;2.47;;
62852;SDS011;49205;44.868;38.140;2022-12-28T09:34:48;7.03;;;3.17;;
62852;SDS011;49205;44.868;38.140;2022-12-28T09:37:18;8.05;;;3.77;;
62852;SDS011;49205;44.868;38.140;2022-12-28T09:39:47;4.67;;;2.22;;
62852;SDS011;49205;44.868;38.140;2022-12-28T09:42:19;4.20;;;2.40;;
62852;SDS011;49205;44.868;38.140;2022-12-28T09:47:35;3.75;;;2.42;;
62852;SDS011;49205;44.868;38.140;2022-12-28T09:52:37;5.67;;;3.02;;
62852;SDS011;49205;44.868;38.140;2022-12-28T09:55:13;4.22;;;3.05;;
62852;SDS011;49205;44.868;38.140;2022-12-28T09:57:49;6.33;;;2.70;;
62852;SDS011;49205;44.868;38.140;2022-12-28T10:00:21;7.85;;;3.98;;
62852;SDS011;49205;44.868;38.140;2022-12-28T10:02:57;4.12;;;2.62;;
62852;SDS011;49205;44.868;38.140;2022-12-28T10:05:26;3.67;;;2.40;;
62852;SDS011;49205;44.868;38.140;2022-12-28T10:07:56;4.90;;;2.83;;
62852;SDS011;49205;44.868;38.140;2022-12-28T10:10:24;5.37;;;3.02;;
62852;SDS011;49205;44.868;38.140;2022-12-28T10:12:54;3.37;;;2.10;;
62852;SDS011;49205;44.868;38.140;2022-12-28T10:15:24;8.65;;;2.83;;
62852;SDS011;49205;44.868;38.140;2022-12-28T10:17:52;6.20;;;2.83;;
62852;SDS011;49205;44.868;38.140;2022-12-28T10:20:21;5.33;;;3.00;;
62852;SDS011;49205;44.868;38.140;2022-12-28T10:22:51;4.70;;;3.75;;
62852;SDS011;49205;44.868;38.140;2022-12-28T10:25:21;6.42;;;2.87;;
62852;SDS011;49205;44.868;38.140;2022-12-28T10:27:50;2.75;;;2.52;;
62852;SDS011;49205;44.868;38.140;2022-12-28T10:30:20;7.55;;;2.27;;
62852;SDS011;49205;44.868;38.140;2022-12-28T10:32:52;3.35;;;1.72;;
62852;SDS011;49205;44.868;38.140;2022-12-28T10:35:24;4.35;;;2.02;;
62852;SDS011;49205;44.868;38.140;2022-12-28T10:37:55;3.75;;;2.10;;
62852;SDS011;49205;44.868;38.140;2022-12-28T10:40:24;2.72;;;2.08;;
62852;SDS011;49205;44.868;38.140;2022-12-28T10:42:53;2.33;;;1.87;;
62852;SDS011;49205;44.868;38.140;2022-12-28T10:45:24;1.80;;;1.47;;
62852;SDS011;49205;44.868;38.140;2022-12-28T10:47:54;2.42;;;1.77;;
62852;SDS011;49205;44.868;38.140;2022-12-28T10:53:15;7.75;;;2.40;;
62852;SDS011;49205;44.868;38.140;2022-12-28T10:55:43;3.62;;;2.12;;
62852;SDS011;49205;44.868;38.140;2022-12-28T10:58:19;2.50;;;2.05;;
62852;SDS011;49205;44.868;38.140;2022-12-28T11:00:55;4.62;;;3.35;;
62852;SDS011;49205;44.868;38.140;2022-12-28T11:03:18;3.60;;;2.45;;
62852;SDS011;49205;44.868;38.140;2022-12-28T11:05:46;2.75;;;1.98;;
62852;SDS011;49205;44.868;38.140;2022-12-28T11:08:15;2.98;;;2.00;;
62852;SDS011;49205;44.868;38.140;2022-12-28T11:10:44;4.87;;;3.15;;
62852;SDS011;49205;44.868;38.140;2022-12-28T11:13:17;4.42;;;2.98;;
62852;SDS011;49205;44.868;38.140;2022-12-28T11:15:42;4.12;;;3.35;;
62852;SDS011;49205;44.868;38.140;2022-12-28T11:18:14;6.33;;;3.47;;
62852;SDS011;49205;44.868;38.140;2022-12-28T11:20:50;3.92;;;2.58;;
62852;SDS011;49205;44.868;38.140;2022-12-28T11:23:24;8.08;;;2.70;;
62852;SDS011;49205;44.868;38.140;2022-12-28T11:25:49;2.55;;;1.62;;
62852;SDS011;49205;44.868;38.140;2022-12-28T11:28:18;6.30;;;2.35;;
62852;SDS011;49205;44.868;38.140;2022-12-28T11:30:47;2.10;;;1.90;;
62852;SDS011;49205;44.868;38.140;2022-12-28T11:36:03;2.17;;;1.90;;
62852;SDS011;49205;44.868;38.140;2022-12-28T11:38:47;1.52;;;1.42;;
62852;SDS011;49205;44.868;38.140;2022-12-28T11:41:39;4.97;;;1.82;;
62852;SDS011;49205;44.868;38.140;2022-12-28T11:43:47;4.67;;;1.95;;
62852;SDS011;49205;44.868;38.140;2022-12-28T11:51:24;2.90;;;2.20;;
62852;SDS011;49205;44.868;38.140;2022-12-28T11:53:50;4.22;;;2.72;;
62852;SDS011;49205;44.868;38.140;2022-12-28T11:56:24;6.40;;;3.37;;
62852;SDS011;49205;44.868;38.140;2022-12-28T12:11:51;3.42;;;2.40;;
62852;SDS011;49205;44.868;38.140;2022-12-28T12:16:55;3.00;;;2.02;;
62852;SDS011;49205;44.868;38.140;2022-12-28T12:19:24;3.83;;;2.62;;
62852;SDS011;49205;44.868;38.140;2022-12-28T12:21:58;3.87;;;2.40;;
62852;SDS011;49205;44.868;38.140;2022-12-28T12:24:24;7.20;;;3.90;;
62852;SDS011;49205;44.868;38.140;2022-12-28T12:26:54;3.95;;;2.87;;
62852;SDS011;49205;44.868;38.140;2022-12-28T12:29:36;6.47;;;3.33;;
62852;SDS011;49205;44.868;38.140;2022-12-28T12:32:01;3.12;;;1.65;;
62852;SDS011;49205;44.868;38.140;2022-12-28T12:34:35;4.33;;;2.67;;
62852;SDS011;49205;44.868;38.140;2022-12-28T12:42:32;8.35;;;3.83;;
62852;SDS011;49205;44.868;38.140;2022-12-28T12:47:46;2.62;;;1.90;;
62852;SDS011;49205;44.868;38.140;2022-12-28T12:50:30;2.72;;;1.55;;
62852;SDS011;49205;44.868;38.140;2022-12-28T12:58:18;5.75;;;4.28;;
62852;SDS011;49205;44.868;38.140;2022-12-28T13:01:08;3.17;;;2.15;;
62852;SDS011;49205;44.868;38.140;2022-12-28T13:06:05;5.30;;;2.60;;
62852;SDS011;49205;44.868;38.140;2022-12-28T13:08:36;5.67;;;2.12;;
62852;SDS011;49205;44.868;38.140;2022-12-28T13:11:06;8.28;;;4.10;;
62852;SDS011;49205;44.868;38.140;2022-12-28T13:13:35;3.27;;;2.42;;
62852;SDS011;49205;44.868;38.140;2022-12-28T13:16:10;3.00;;;2.10;;
62852;SDS011;49205;44.868;38.140;2022-12-28T13:18:34;5.10;;;2.85;;
62852;SDS011;49205;44.868;38.140;2022-12-28T13:21:03;2.75;;;1.60;;
62852;SDS011;49205;44.868;38.140;2022-12-28T13:23:41;3.10;;;2.05;;
62852;SDS011;49205;44.868;38.140;2022-12-28T13:26:02;6.53;;;2.70;;
62852;SDS011;49205;44.868;38.140;2022-12-28T13:28:33;6.45;;;2.52;;
62852;SDS011;49205;44.868;38.140;2022-12-28T13:31:14;3.90;;;2.33;;
62852;SDS011;49205;44.868;38.140;2022-12-28T13:33:39;6.22;;;2.72;;
62852;SDS011;49205;44.868;38.140;2022-12-28T13:38:38;4.28;;;2.87;;
62852;SDS011;49205;44.868;38.140;2022-12-28T13:41:18;5.58;;;2.83;;
62852;SDS011;49205;44.868;38.140;2022-12-28T13:43:59;7.12;;;3.37;;
62852;SDS011;49205;44.868;38.140;2022-12-28T13:46:22;7.60;;;2.85;;
62852;SDS011;49205;44.868;38.140;2022-12-28T13:48:52;3.40;;;2.90;;
62852;SDS011;49205;44.868;38.140;2022-12-28T13:51:23;2.45;;;1.87;;
62852;SDS011;49205;44.868;38.140;2022-12-28T13:53:54;3.52;;;3.05;;
62852;SDS011;49205;44.868;38.140;2022-12-28T13:56:22;3.45;;;2.60;;
62852;SDS011;49205;44.868;38.140;2022-12-28T13:58:51;3.30;;;2.62;;
62852;SDS011;49205;44.868;38.140;2022-12-28T14:01:22;8.75;;;4.28;;
62852;SDS011;49205;44.868;38.140;2022-12-28T14:03:51;7.22;;;3.55;;
62852;SDS011;49205;44.868;38.140;2022-12-28T14:06:20;5.97;;;2.72;;
62852;SDS011;49205;44.868;38.140;2022-12-28T14:08:49;20.80;;;3.47;;
62852;SDS011;49205;44.868;38.140;2022-12-28T14:11:18;6.75;;;2.85;;
62852;SDS011;49205;44.868;38.140;2022-12-28T14:13:47;8.55;;;3.87;;
62852;SDS011;49205;44.868;38.140;2022-12-28T14:16:16;9.70;;;3.65;;
62852;SDS011;49205;44.868;38.140;2022-12-28T14:18:46;9.23;;;2.77;;
62852;SDS011;49205;44.868;38.140;2022-12-28T14:21:14;13.58;;;5.08;;
62852;SDS011;49205;44.868;38.140;2022-12-28T14:23:43;9.03;;;3.47;;
62852;SDS011;49205;44.868;38.140;2022-12-28T14:26:18;12.18;;;4.28;;
62852;SDS011;49205;44.868;38.140;2022-12-28T14:28:49;14.50;;;5.10;;
62852;SDS011;49205;44.868;38.140;2022-12-28T14:31:23;13.50;;;5.95;;
62852;SDS011;49205;44.868;38.140;2022-12-28T14:33:51;22.87;;;5.62;;
62852;SDS011;49205;44.868;38.140;2022-12-28T14:36:21;9.95;;;4.03;;
62852;SDS011;49205;44.868;38.140;2022-12-28T14:38:51;11.08;;;3.62;;
62852;SDS011;49205;44.868;38.140;2022-12-28T14:41:21;10.00;;;4.75;;
62852;SDS011;49205;44.868;38.140;2022-12-28T14:43:55;9.13;;;3.12;;
62852;SDS011;49205;44.868;38.140;2022-12-28T14:48:56;8.63;;;3.30;;
62852;SDS011;49205;44.868;38.140;2022-12-28T14:51:25;9.50;;;2.85;;
62852;SDS011;49205;44.868;38.140;2022-12-28T14:54:54;8.83;;;2.65;;
62852;SDS011;49205;44.868;38.140;2022-12-28T14:56:32;16.20;;;4.80;;
62852;SDS011;49205;44.868;38.140;2022-12-28T14:59:01;20.95;;;6.72;;
62852;SDS011;49205;44.868;38.140;2022-12-28T15:01:40;20.08;;;5.60;;
62852;SDS011;49205;44.868;38.140;2022-12-28T15:04:00;29.55;;;5.87;;
62852;SDS011;49205;44.868;38.140;2022-12-28T15:06:30;11.30;;;5.08;;
62852;SDS011;49205;44.868;38.140;2022-12-28T15:08:59;24.20;;;7.20;;
62852;SDS011;49205;44.868;38.140;2022-12-28T15:11:32;14.45;;;6.85;;
62852;SDS011;49205;44.868;38.140;2022-12-28T15:14:01;28.17;;;11.12;;
62852;SDS011;49205;44.868;38.140;2022-12-28T15:16:30;29.25;;;11.22;;
62852;SDS011;49205;44.868;38.140;2022-12-28T15:18:58;22.82;;;7.10;;
62852;SDS011;49205;44.868;38.140;2022-12-28T15:21:27;13.30;;;6.05;;
62852;SDS011;49205;44.868;38.140;2022-12-28T15:23:55;9.73;;;3.62;;
62852;SDS011;49205;44.868;38.140;2022-12-28T15:26:24;11.80;;;3.30;;
62852;SDS011;49205;44.868;38.140;2022-12-28T15:28:54;10.72;;;4.17;;
62852;SDS011;49205;44.868;38.140;2022-12-28T15:31:22;9.93;;;4.10;;
62852;SDS011;49205;44.868;38.140;2022-12-28T15:33:51;10.08;;;3.33;;
62852;SDS011;49205;44.868;38.140;2022-12-28T15:36:20;9.23;;;3.12;;
62852;SDS011;49205;44.868;38.140;2022-12-28T15:38:48;13.78;;;5.45;;
62852;SDS011;49205;44.868;38.140;2022-12-28T15:41:17;14.65;;;5.35;;
62852;SDS011;49205;44.868;38.140;2022-12-28T15:44:04;9.15;;;4.60;;
62852;SDS011;49205;44.868;38.140;2022-12-28T15:46:33;12.75;;;3.77;;
62852;SDS011;49205;44.868;38.140;2022-12-28T15:49:02;12.40;;;5.00;;
62852;SDS011;49205;44.868;38.140;2022-12-28T15:51:31;12.35;;;4.20;;
62852;SDS011;49205;44.868;38.140;2022-12-28T15:53:59;16.32;;;7.42;;
62852;SDS011;49205;44.868;38.140;2022-12-28T15:56:28;8.35;;;3.80;;
62852;SDS011;49205;44.868;38.140;2022-12-28T15:58:58;14.05;;;5.30;;
62852;SDS011;49205;44.868;38.140;2022-12-28T16:01:27;11.40;;;3.85;;
62852;SDS011;49205;44.868;38.140;2022-12-28T16:03:57;12.65;;;2.40;;
62852;SDS011;49205;44.868;38.140;2022-12-28T16:06:26;11.90;;;4.08;;
62852;SDS011;49205;44.868;38.140;2022-12-28T16:08:55;11.18;;;3.02;;
62852;SDS011;49205;44.868;38.140;2022-12-28T16:11:24;5.10;;;3.37;;
62852;SDS011;49205;44.868;38.140;2022-12-28T16:13:58;6.40;;;3.58;;